Terminal Aerodrome Forecast
Issued by NWS

Current Version | Previous Version | Text Only | Print | Product List | Glossary On
Versions: 1 2 3 4 5 6 7 8 9 10 11 12 13 14 15 16 17 18 19 20 21
526
FTUS41 KPHI 272341
TAFPNE
TAF
KPNE 272341Z 2800/2824 VRB03KT 5SM BR FEW015
     FM280200 VRB02KT 5SM BR OVC015
     FM280400 VRB02KT 3SM BR OVC007
     FM280600 VRB02KT 1SM -SHRA BR OVC003
     FM281400 08003KT 2SM SHRA BR OVC006
     FM281900 06003KT 5SM -RADZ BR OVC015=

USA.gov is the U.S. government's official web portal to all federal, state and local government web resources and services.